sensor_id;sensor_type;location;lat;lon;timestamp;temperature;humidity
31131;DHT22;20292;50.944;4.034;2022-07-04T00:00:48;18.80;99.90
31131;DHT22;20292;50.944;4.034;2022-07-04T00:03:14;18.80;99.90
31131;DHT22;20292;50.944;4.034;2022-07-04T00:05:39;18.70;99.90
31131;DHT22;20292;50.944;4.034;2022-07-04T00:08:05;18.60;99.90
31131;DHT22;20292;50.944;4.034;2022-07-04T00:10:31;18.60;99.90
31131;DHT22;20292;50.944;4.034;2022-07-04T00:12:57;18.60;99.90
31131;DHT22;20292;50.944;4.034;2022-07-04T00:15:22;18.60;99.90
31131;DHT22;20292;50.944;4.034;2022-07-04T00:17:49;18.50;99.90
31131;DHT22;20292;50.944;4.034;2022-07-04T00:20:14;18.50;99.90
31131;DHT22;20292;50.944;4.034;2022-07-04T00:22:40;18.50;99.90
31131;DHT22;20292;50.944;4.034;2022-07-04T00:25:06;18.50;99.90
31131;DHT22;20292;50.944;4.034;2022-07-04T00:27:32;18.50;99.90
31131;DHT22;20292;50.944;4.034;2022-07-04T00:29:58;18.50;99.90
31131;DHT22;20292;50.944;4.034;2022-07-04T00:32:23;18.50;99.90
31131;DHT22;20292;50.944;4.034;2022-07-04T00:34:49;18.50;99.90
31131;DHT22;20292;50.944;4.034;2022-07-04T00:37:14;18.50;99.90
31131;DHT22;20292;50.944;4.034;2022-07-04T00:39:40;18.50;99.90
31131;DHT22;20292;50.944;4.034;2022-07-04T00:42:07;18.40;99.90
31131;DHT22;20292;50.944;4.034;2022-07-04T00:44:33;18.40;99.90
31131;DHT22;20292;50.944;4.034;2022-07-04T00:47:03;18.20;99.90
31131;DHT22;20292;50.944;4.034;2022-07-04T00:49:29;18.20;99.90
31131;DHT22;20292;50.944;4.034;2022-07-04T00:51:54;18.20;99.90
31131;DHT22;20292;50.944;4.034;2022-07-04T00:54:25;18.30;99.90
31131;DHT22;20292;50.944;4.034;2022-07-04T00:56:52;18.30;99.90
31131;DHT22;20292;50.944;4.034;2022-07-04T00:59:19;18.30;99.90
31131;DHT22;20292;50.944;4.034;2022-07-04T01:01:44;18.20;99.90
31131;DHT22;20292;50.944;4.034;2022-07-04T01:04:10;18.30;99.90
31131;DHT22;20292;50.944;4.034;2022-07-04T01:06:36;18.20;99.90
31131;DHT22;20292;50.944;4.034;2022-07-04T01:09:03;18.20;99.90
31131;DHT22;20292;50.944;4.034;2022-07-04T01:11:30;18.20;99.90
31131;DHT22;20292;50.944;4.034;2022-07-04T01:13:56;18.20;99.90
31131;DHT22;20292;50.944;4.034;2022-07-04T01:16:24;18.10;99.90
31131;DHT22;20292;50.944;4.034;2022-07-04T01:18:51;18.10;99.90
31131;DHT22;20292;50.944;4.034;2022-07-04T01:21:18;18.10;99.90
31131;DHT22;20292;50.944;4.034;2022-07-04T01:23:44;18.00;99.90
31131;DHT22;20292;50.944;4.034;2022-07-04T01:26:10;18.10;99.90
31131;DHT22;20292;50.944;4.034;2022-07-04T01:28:36;18.10;99.90
31131;DHT22;20292;50.944;4.034;2022-07-04T01:31:02;18.10;99.90
31131;DHT22;20292;50.944;4.034;2022-07-04T01:33:28;18.00;99.90
31131;DHT22;20292;50.944;4.034;2022-07-04T01:35:54;18.00;99.90
31131;DHT22;20292;50.944;4.034;2022-07-04T01:38:20;17.90;99.90
31131;DHT22;20292;50.944;4.034;2022-07-04T01:40:45;17.90;99.90
31131;DHT22;20292;50.944;4.034;2022-07-04T01:43:11;17.80;99.90
31131;DHT22;20292;50.944;4.034;2022-07-04T01:45:37;17.80;99.90
31131;DHT22;20292;50.944;4.034;2022-07-04T01:48:12;17.70;99.90
31131;DHT22;20292;50.944;4.034;2022-07-04T01:50:39;17.70;99.90
31131;DHT22;20292;50.944;4.034;2022-07-04T01:53:04;17.70;99.90
31131;DHT22;20292;50.944;4.034;2022-07-04T01:55:30;17.70;99.90
31131;DHT22;20292;50.944;4.034;2022-07-04T01:57:56;17.70;99.90
31131;DHT22;20292;50.944;4.034;2022-07-04T02:00:22;17.60;99.90
31131;DHT22;20292;50.944;4.034;2022-07-04T02:03:07;17.60;99.90
31131;DHT22;20292;50.944;4.034;2022-07-04T02:05:33;17.60;99.90
31131;DHT22;20292;50.944;4.034;2022-07-04T02:07:59;17.40;99.90
31131;DHT22;20292;50.944;4.034;2022-07-04T02:10:25;17.30;99.90
31131;DHT22;20292;50.944;4.034;2022-07-04T02:12:51;17.30;99.90
31131;DHT22;20292;50.944;4.034;2022-07-04T02:15:36;17.30;99.90
31131;DHT22;20292;50.944;4.034;2022-07-04T02:18:07;17.30;99.90
31131;DHT22;20292;50.944;4.034;2022-07-04T02:20:34;17.30;99.90
31131;DHT22;20292;50.944;4.034;2022-07-04T02:23:00;17.20;99.90
31131;DHT22;20292;50.944;4.034;2022-07-04T02:25:26;17.20;99.90
31131;DHT22;20292;50.944;4.034;2022-07-04T02:27:51;17.20;99.90
31131;DHT22;20292;50.944;4.034;2022-07-04T02:30:17;17.10;99.90
31131;DHT22;20292;50.944;4.034;2022-07-04T02:32:43;17.00;99.90
31131;DHT22;20292;50.944;4.034;2022-07-04T02:35:09;17.00;99.90
31131;DHT22;20292;50.944;4.034;2022-07-04T02:37:35;16.90;99.90
31131;DHT22;20292;50.944;4.034;2022-07-04T02:40:01;16.90;99.90
31131;DHT22;20292;50.944;4.034;2022-07-04T02:42:31;16.90;99.90
31131;DHT22;20292;50.944;4.034;2022-07-04T02:44:57;16.90;99.90
31131;DHT22;20292;50.944;4.034;2022-07-04T02:47:23;16.90;99.90
31131;DHT22;20292;50.944;4.034;2022-07-04T02:49:48;16.80;99.90
31131;DHT22;20292;50.944;4.034;2022-07-04T02:52:14;16.80;99.90
31131;DHT22;20292;50.944;4.034;2022-07-04T02:54:40;16.80;99.90
31131;DHT22;20292;50.944;4.034;2022-07-04T02:57:07;16.80;99.90
31131;DHT22;20292;50.944;4.034;2022-07-04T02:59:33;16.70;99.90
31131;DHT22;20292;50.944;4.034;2022-07-04T03:01:59;16.70;99.90
31131;DHT22;20292;50.944;4.034;2022-07-04T03:04:24;16.70;99.90
31131;DHT22;20292;50.944;4.034;2022-07-04T03:06:50;16.60;99.90
31131;DHT22;20292;50.944;4.034;2022-07-04T03:09:15;16.60;99.90
31131;DHT22;20292;50.944;4.034;2022-07-04T03:11:41;16.50;99.90
31131;DHT22;20292;50.944;4.034;2022-07-04T03:14:07;16.40;99.90
31131;DHT22;20292;50.944;4.034;2022-07-04T03:16:32;16.40;99.90
31131;DHT22;20292;50.944;4.034;2022-07-04T03:18:58;16.40;99.90
31131;DHT22;20292;50.944;4.034;2022-07-04T03:21:23;16.30;99.90
31131;DHT22;20292;50.944;4.034;2022-07-04T03:23:49;16.20;99.90
31131;DHT22;20292;50.944;4.034;2022-07-04T03:26:27;16.20;99.90
31131;DHT22;20292;50.944;4.034;2022-07-04T03:28:54;16.10;99.90
31131;DHT22;20292;50.944;4.034;2022-07-04T03:31:20;16.10;99.90
31131;DHT22;20292;50.944;4.034;2022-07-04T03:33:46;16.10;99.90
31131;DHT22;20292;50.944;4.034;2022-07-04T03:36:12;16.10;99.90
31131;DHT22;20292;50.944;4.034;2022-07-04T03:38:38;16.10;99.90
31131;DHT22;20292;50.944;4.034;2022-07-04T03:41:04;16.10;99.90
31131;DHT22;20292;50.944;4.034;2022-07-04T03:43:29;16.10;99.90
31131;DHT22;20292;50.944;4.034;2022-07-04T03:45:55;16.20;99.90
31131;DHT22;20292;50.944;4.034;2022-07-04T03:48:21;16.20;99.90
31131;DHT22;20292;50.944;4.034;2022-07-04T03:50:47;16.10;99.90
31131;DHT22;20292;50.944;4.034;2022-07-04T03:53:12;16.30;99.90
31131;DHT22;20292;50.944;4.034;2022-07-04T03:55:38;16.30;99.90
31131;DHT22;20292;50.944;4.034;2022-07-04T03:58:05;16.40;99.90
31131;DHT22;20292;50.944;4.034;2022-07-04T04:00:31;16.60;99.90
31131;DHT22;20292;50.944;4.034;2022-07-04T04:02:57;16.80;99.90
31131;DHT22;20292;50.944;4.034;2022-07-04T04:05:23;17.00;99.90
31131;DHT22;20292;50.944;4.034;2022-07-04T04:07:57;17.20;99.90
31131;DHT22;20292;50.944;4.034;2022-07-04T04:10:23;17.50;99.90
31131;DHT22;20292;50.944;4.034;2022-07-04T04:12:50;17.50;99.90
31131;DHT22;20292;50.944;4.034;2022-07-04T04:15:15;17.60;99.90
31131;DHT22;20292;50.944;4.034;2022-07-04T04:17:41;17.60;99.90
31131;DHT22;20292;50.944;4.034;2022-07-04T04:20:07;17.70;99.90
31131;DHT22;20292;50.944;4.034;2022-07-04T04:22:34;17.60;99.90
31131;DHT22;20292;50.944;4.034;2022-07-04T04:25:00;17.60;99.90
31131;DHT22;20292;50.944;4.034;2022-07-04T04:27:25;17.70;99.90
31131;DHT22;20292;50.944;4.034;2022-07-04T04:29:51;17.80;99.90
31131;DHT22;20292;50.944;4.034;2022-07-04T04:32:17;18.20;99.90
31131;DHT22;20292;50.944;4.034;2022-07-04T04:34:42;18.70;99.90
31131;DHT22;20292;50.944;4.034;2022-07-04T04:37:08;19.30;99.90
31131;DHT22;20292;50.944;4.034;2022-07-04T04:39:33;19.80;99.90
31131;DHT22;20292;50.944;4.034;2022-07-04T04:41:59;20.30;99.90
31131;DHT22;20292;50.944;4.034;2022-07-04T04:44:25;20.70;99.90
31131;DHT22;20292;50.944;4.034;2022-07-04T04:46:51;21.00;99.90
31131;DHT22;20292;50.944;4.034;2022-07-04T04:49:16;21.30;99.90
31131;DHT22;20292;50.944;4.034;2022-07-04T04:51:43;21.60;99.90
31131;DHT22;20292;50.944;4.034;2022-07-04T04:54:08;22.00;99.90
31131;DHT22;20292;50.944;4.034;2022-07-04T04:56:34;22.40;99.90
31131;DHT22;20292;50.944;4.034;2022-07-04T04:58:59;22.60;99.90
31131;DHT22;20292;50.944;4.034;2022-07-04T05:01:25;22.80;99.90
31131;DHT22;20292;50.944;4.034;2022-07-04T05:03:51;23.20;99.90
31131;DHT22;20292;50.944;4.034;2022-07-04T05:06:17;23.70;99.90
31131;DHT22;20292;50.944;4.034;2022-07-04T05:08:43;24.10;99.90
31131;DHT22;20292;50.944;4.034;2022-07-04T05:11:09;24.60;99.90
31131;DHT22;20292;50.944;4.034;2022-07-04T05:13:35;24.80;99.90
31131;DHT22;20292;50.944;4.034;2022-07-04T05:16:00;25.30;99.90
31131;DHT22;20292;50.944;4.034;2022-07-04T05:18:26;25.90;99.90
31131;DHT22;20292;50.944;4.034;2022-07-04T05:20:51;26.60;99.90
31131;DHT22;20292;50.944;4.034;2022-07-04T05:23:17;26.50;99.90
31131;DHT22;20292;50.944;4.034;2022-07-04T05:25:43;26.80;99.90
31131;DHT22;20292;50.944;4.034;2022-07-04T05:28:08;26.60;99.90
31131;DHT22;20292;50.944;4.034;2022-07-04T05:30:34;27.00;99.90
31131;DHT22;20292;50.944;4.034;2022-07-04T05:32:59;27.20;99.70
31131;DHT22;20292;50.944;4.034;2022-07-04T05:35:27;27.40;98.70
31131;DHT22;20292;50.944;4.034;2022-07-04T05:37:53;27.00;98.90
31131;DHT22;20292;50.944;4.034;2022-07-04T05:40:19;27.00;99.00
31131;DHT22;20292;50.944;4.034;2022-07-04T05:42:46;27.20;99.00
31131;DHT22;20292;50.944;4.034;2022-07-04T05:45:12;27.40;98.50
31131;DHT22;20292;50.944;4.034;2022-07-04T05:47:38;27.70;97.60
31131;DHT22;20292;50.944;4.034;2022-07-04T05:50:03;28.10;97.10
31131;DHT22;20292;50.944;4.034;2022-07-04T05:52:29;28.50;95.90
31131;DHT22;20292;50.944;4.034;2022-07-04T05:54:55;28.50;95.30
31131;DHT22;20292;50.944;4.034;2022-07-04T05:57:21;28.50;95.40
31131;DHT22;20292;50.944;4.034;2022-07-04T05:59:46;28.40;95.30
31131;DHT22;20292;50.944;4.034;2022-07-04T06:02:12;28.80;94.60
31131;DHT22;20292;50.944;4.034;2022-07-04T06:04:38;30.30;93.00
31131;DHT22;20292;50.944;4.034;2022-07-04T06:07:04;30.20;92.20
31131;DHT22;20292;50.944;4.034;2022-07-04T06:09:29;29.80;92.40
31131;DHT22;20292;50.944;4.034;2022-07-04T06:11:55;29.90;92.20
31131;DHT22;20292;50.944;4.034;2022-07-04T06:14:21;30.10;92.00
31131;DHT22;20292;50.944;4.034;2022-07-04T06:16:46;30.90;91.50
31131;DHT22;20292;50.944;4.034;2022-07-04T06:19:12;31.30;89.90
31131;DHT22;20292;50.944;4.034;2022-07-04T06:21:37;31.40;88.80
31131;DHT22;20292;50.944;4.034;2022-07-04T06:24:03;31.30;88.10
31131;DHT22;20292;50.944;4.034;2022-07-04T06:26:29;31.60;87.70
31131;DHT22;20292;50.944;4.034;2022-07-04T06:28:56;32.70;84.30
31131;DHT22;20292;50.944;4.034;2022-07-04T06:31:22;33.50;81.40
31131;DHT22;20292;50.944;4.034;2022-07-04T06:33:48;32.90;82.10
31131;DHT22;20292;50.944;4.034;2022-07-04T06:36:32;33.30;81.30
31131;DHT22;20292;50.944;4.034;2022-07-04T06:38:58;34.40;77.80
31131;DHT22;20292;50.944;4.034;2022-07-04T06:41:24;34.70;75.80
31131;DHT22;20292;50.944;4.034;2022-07-04T06:43:50;34.70;75.70
31131;DHT22;20292;50.944;4.034;2022-07-04T06:46:15;34.60;74.60
31131;DHT22;20292;50.944;4.034;2022-07-04T06:48:41;33.80;75.90
31131;DHT22;20292;50.944;4.034;2022-07-04T06:51:07;33.80;77.00
31131;DHT22;20292;50.944;4.034;2022-07-04T06:53:32;33.70;77.00
31131;DHT22;20292;50.944;4.034;2022-07-04T06:55:58;34.20;76.50
31131;DHT22;20292;50.944;4.034;2022-07-04T06:58:23;34.20;75.40
31131;DHT22;20292;50.944;4.034;2022-07-04T07:00:49;34.20;75.60
31131;DHT22;20292;50.944;4.034;2022-07-04T07:03:14;34.40;75.00
31131;DHT22;20292;50.944;4.034;2022-07-04T07:05:40;34.90;74.10
31131;DHT22;20292;50.944;4.034;2022-07-04T07:08:06;34.60;72.90
31131;DHT22;20292;50.944;4.034;2022-07-04T07:10:31;33.90;75.00
31131;DHT22;20292;50.944;4.034;2022-07-04T07:13:02;33.90;75.00
31131;DHT22;20292;50.944;4.034;2022-07-04T07:15:27;33.70;75.40
31131;DHT22;20292;50.944;4.034;2022-07-04T07:17:53;33.10;76.90
31131;DHT22;20292;50.944;4.034;2022-07-04T07:20:19;33.40;77.70
31131;DHT22;20292;50.944;4.034;2022-07-04T07:22:45;33.50;76.60
31131;DHT22;20292;50.944;4.034;2022-07-04T07:25:11;34.60;74.60
31131;DHT22;20292;50.944;4.034;2022-07-04T07:27:37;35.40;72.50
31131;DHT22;20292;50.944;4.034;2022-07-04T07:30:04;35.30;72.30
31131;DHT22;20292;50.944;4.034;2022-07-04T07:32:30;35.90;70.90
31131;DHT22;20292;50.944;4.034;2022-07-04T07:34:56;36.70;69.10
31131;DHT22;20292;50.944;4.034;2022-07-04T07:37:21;36.10;69.40
31131;DHT22;20292;50.944;4.034;2022-07-04T07:39:48;36.30;68.40
31131;DHT22;20292;50.944;4.034;2022-07-04T07:42:13;35.90;68.90
31131;DHT22;20292;50.944;4.034;2022-07-04T07:44:39;36.30;68.00
31131;DHT22;20292;50.944;4.034;2022-07-04T07:47:05;36.60;67.10
31131;DHT22;20292;50.944;4.034;2022-07-04T07:49:30;36.80;66.00
31131;DHT22;20292;50.944;4.034;2022-07-04T07:51:56;36.00;67.70
31131;DHT22;20292;50.944;4.034;2022-07-04T07:54:22;36.50;67.00
31131;DHT22;20292;50.944;4.034;2022-07-04T07:56:47;35.70;66.60
31131;DHT22;20292;50.944;4.034;2022-07-04T07:59:13;35.40;67.00
31131;DHT22;20292;50.944;4.034;2022-07-04T08:01:38;36.10;66.90
31131;DHT22;20292;50.944;4.034;2022-07-04T08:04:04;36.30;65.10
31131;DHT22;20292;50.944;4.034;2022-07-04T08:06:48;35.70;64.40
31131;DHT22;20292;50.944;4.034;2022-07-04T08:09:14;35.40;64.60
31131;DHT22;20292;50.944;4.034;2022-07-04T08:11:41;35.00;64.80
31131;DHT22;20292;50.944;4.034;2022-07-04T08:14:07;35.40;64.50
31131;DHT22;20292;50.944;4.034;2022-07-04T08:16:33;35.60;64.00
31131;DHT22;20292;50.944;4.034;2022-07-04T08:18:59;36.20;62.90
31131;DHT22;20292;50.944;4.034;2022-07-04T08:21:25;36.30;61.90
31131;DHT22;20292;50.944;4.034;2022-07-04T08:23:50;36.50;61.40
31131;DHT22;20292;50.944;4.034;2022-07-04T08:26:16;36.80;60.80
31131;DHT22;20292;50.944;4.034;2022-07-04T08:28:42;37.20;59.60
31131;DHT22;20292;50.944;4.034;2022-07-04T08:31:07;37.60;59.60
31131;DHT22;20292;50.944;4.034;2022-07-04T08:33:33;38.70;57.80
31131;DHT22;20292;50.944;4.034;2022-07-04T08:35:59;37.50;56.50
31131;DHT22;20292;50.944;4.034;2022-07-04T08:38:24;37.20;57.70
31131;DHT22;20292;50.944;4.034;2022-07-04T08:40:57;37.60;57.30
31131;DHT22;20292;50.944;4.034;2022-07-04T08:43:25;37.40;57.10
31131;DHT22;20292;50.944;4.034;2022-07-04T08:45:54;38.00;56.90
31131;DHT22;20292;50.944;4.034;2022-07-04T08:48:23;38.60;55.90
31131;DHT22;20292;50.944;4.034;2022-07-04T08:50:55;38.00;54.80
31131;DHT22;20292;50.944;4.034;2022-07-04T08:53:22;38.50;55.20
31131;DHT22;20292;50.944;4.034;2022-07-04T08:55:49;38.60;55.20
31131;DHT22;20292;50.944;4.034;2022-07-04T08:58:34;39.60;54.60
31131;DHT22;20292;50.944;4.034;2022-07-04T09:01:03;39.70;54.00
31131;DHT22;20292;50.944;4.034;2022-07-04T09:03:29;39.60;53.30
31131;DHT22;20292;50.944;4.034;2022-07-04T09:05:56;39.60;53.70
31131;DHT22;20292;50.944;4.034;2022-07-04T09:08:22;39.20;53.60
31131;DHT22;20292;50.944;4.034;2022-07-04T09:10:50;38.70;54.20
31131;DHT22;20292;50.944;4.034;2022-07-04T09:13:16;37.80;55.30
31131;DHT22;20292;50.944;4.034;2022-07-04T09:15:50;38.30;55.50
31131;DHT22;20292;50.944;4.034;2022-07-04T09:18:26;38.10;55.00
31131;DHT22;20292;50.944;4.034;2022-07-04T09:20:53;37.90;55.20
31131;DHT22;20292;50.944;4.034;2022-07-04T09:23:21;37.70;54.70
31131;DHT22;20292;50.944;4.034;2022-07-04T09:26:05;37.70;55.50
31131;DHT22;20292;50.944;4.034;2022-07-04T09:28:31;37.70;55.40
31131;DHT22;20292;50.944;4.034;2022-07-04T09:30:57;36.40;56.20
31131;DHT22;20292;50.944;4.034;2022-07-04T09:36:12;35.20;58.90
31131;DHT22;20292;50.944;4.034;2022-07-04T09:38:38;34.50;59.40
31131;DHT22;20292;50.944;4.034;2022-07-04T09:41:04;34.80;59.80
31131;DHT22;20292;50.944;4.034;2022-07-04T09:44:03;34.90;58.90
31131;DHT22;20292;50.944;4.034;2022-07-04T09:46:30;33.30;61.60
31131;DHT22;20292;50.944;4.034;2022-07-04T09:48:55;33.20;62.40
31131;DHT22;20292;50.944;4.034;2022-07-04T09:54:16;30.20;69.50
31131;DHT22;20292;50.944;4.034;2022-07-04T09:56:48;30.20;71.20
31131;DHT22;20292;50.944;4.034;2022-07-04T09:59:14;30.50;70.40
31131;DHT22;20292;50.944;4.034;2022-07-04T10:01:40;30.90;70.90
31131;DHT22;20292;50.944;4.034;2022-07-04T10:04:07;30.50;71.10
31131;DHT22;20292;50.944;4.034;2022-07-04T10:06:33;30.10;71.30
31131;DHT22;20292;50.944;4.034;2022-07-04T10:09:11;29.60;74.00
31131;DHT22;20292;50.944;4.034;2022-07-04T10:11:38;29.00;76.90
31131;DHT22;20292;50.944;4.034;2022-07-04T10:14:06;28.70;78.60
31131;DHT22;20292;50.944;4.034;2022-07-04T10:16:31;28.00;81.70
31131;DHT22;20292;50.944;4.034;2022-07-04T10:18:57;27.70;81.90
31131;DHT22;20292;50.944;4.034;2022-07-04T10:21:23;28.00;81.80
31131;DHT22;20292;50.944;4.034;2022-07-04T10:23:50;28.30;79.80
31131;DHT22;20292;50.944;4.034;2022-07-04T10:26:20;28.70;80.30
31131;DHT22;20292;50.944;4.034;2022-07-04T10:28:47;28.80;76.80
31131;DHT22;20292;50.944;4.034;2022-07-04T10:31:15;28.90;77.30
31131;DHT22;20292;50.944;4.034;2022-07-04T10:33:41;29.20;77.50
31131;DHT22;20292;50.944;4.034;2022-07-04T10:36:27;29.40;76.90
31131;DHT22;20292;50.944;4.034;2022-07-04T10:39:02;29.50;76.10
31131;DHT22;20292;50.944;4.034;2022-07-04T10:41:29;29.10;75.10
31131;DHT22;20292;50.944;4.034;2022-07-04T10:43:57;28.60;77.60
31131;DHT22;20292;50.944;4.034;2022-07-04T10:51:46;28.80;76.10
31131;DHT22;20292;50.944;4.034;2022-07-04T10:54:32;28.70;77.30
31131;DHT22;20292;50.944;4.034;2022-07-04T10:57:14;28.80;79.10
31131;DHT22;20292;50.944;4.034;2022-07-04T11:00:04;29.00;77.90
31131;DHT22;20292;50.944;4.034;2022-07-04T11:02:34;28.70;77.60
31131;DHT22;20292;50.944;4.034;2022-07-04T11:05:08;28.40;78.80
31131;DHT22;20292;50.944;4.034;2022-07-04T11:18:01;27.60;80.80
31131;DHT22;20292;50.944;4.034;2022-07-04T11:20:29;27.40;82.50
31131;DHT22;20292;50.944;4.034;2022-07-04T11:23:11;27.30;84.00
31131;DHT22;20292;50.944;4.034;2022-07-04T11:25:39;27.20;83.10
31131;DHT22;20292;50.944;4.034;2022-07-04T11:28:22;27.30;83.50
31131;DHT22;20292;50.944;4.034;2022-07-04T11:30:56;27.40;83.30
31131;DHT22;20292;50.944;4.034;2022-07-04T11:33:28;27.60;82.60
31131;DHT22;20292;50.944;4.034;2022-07-04T11:36:12;27.90;80.70
31131;DHT22;20292;50.944;4.034;2022-07-04T11:38:59;28.20;77.70
31131;DHT22;20292;50.944;4.034;2022-07-04T11:41:27;28.50;76.70
31131;DHT22;20292;50.944;4.034;2022-07-04T11:44:14;28.60;74.80
31131;DHT22;20292;50.944;4.034;2022-07-04T11:47:18;28.50;75.40
31131;DHT22;20292;50.944;4.034;2022-07-04T11:49:52;28.30;76.50
31131;DHT22;20292;50.944;4.034;2022-07-04T11:52:20;28.20;76.60
31131;DHT22;20292;50.944;4.034;2022-07-04T11:54:47;28.10;76.60
31131;DHT22;20292;50.944;4.034;2022-07-04T11:57:20;28.00;78.00
31131;DHT22;20292;50.944;4.034;2022-07-04T12:00:07;28.00;77.80
31131;DHT22;20292;50.944;4.034;2022-07-04T12:02:34;28.20;74.80
31131;DHT22;20292;50.944;4.034;2022-07-04T12:05:03;28.30;73.40
31131;DHT22;20292;50.944;4.034;2022-07-04T12:07:30;28.20;74.00
31131;DHT22;20292;50.944;4.034;2022-07-04T12:10:16;28.50;75.60
31131;DHT22;20292;50.944;4.034;2022-07-04T12:13:05;28.80;75.20
31131;DHT22;20292;50.944;4.034;2022-07-04T12:15:39;29.20;73.00
31131;DHT22;20292;50.944;4.034;2022-07-04T12:18:10;29.30;71.50
31131;DHT22;20292;50.944;4.034;2022-07-04T12:20:40;29.30;73.40
31131;DHT22;20292;50.944;4.034;2022-07-04T12:23:06;29.20;74.00
31131;DHT22;20292;50.944;4.034;2022-07-04T12:25:36;29.20;74.30
31131;DHT22;20292;50.944;4.034;2022-07-04T12:28:08;29.30;73.20
31131;DHT22;20292;50.944;4.034;2022-07-04T12:30:39;29.20;73.10
31131;DHT22;20292;50.944;4.034;2022-07-04T12:33:06;29.10;73.10
31131;DHT22;20292;50.944;4.034;2022-07-04T12:35:48;29.00;74.60
31131;DHT22;20292;50.944;4.034;2022-07-04T12:38:16;29.00;75.00
31131;DHT22;20292;50.944;4.034;2022-07-04T12:48:52;28.50;76.40
31131;DHT22;20292;50.944;4.034;2022-07-04T12:51:19;28.20;76.80
31131;DHT22;20292;50.944;4.034;2022-07-04T12:53:48;28.00;77.00
31131;DHT22;20292;50.944;4.034;2022-07-04T12:59:00;27.40;79.80
31131;DHT22;20292;50.944;4.034;2022-07-04T13:01:26;27.60;81.70
31131;DHT22;20292;50.944;4.034;2022-07-04T13:03:52;27.60;78.70
31131;DHT22;20292;50.944;4.034;2022-07-04T13:06:17;27.90;77.40
31131;DHT22;20292;50.944;4.034;2022-07-04T13:08:44;28.10;77.70
31131;DHT22;20292;50.944;4.034;2022-07-04T13:11:10;27.90;76.70
31131;DHT22;20292;50.944;4.034;2022-07-04T13:13:54;27.80;76.90
31131;DHT22;20292;50.944;4.034;2022-07-04T13:16:19;27.70;76.50
31131;DHT22;20292;50.944;4.034;2022-07-04T13:18:45;27.80;79.70
31131;DHT22;20292;50.944;4.034;2022-07-04T13:21:10;27.90;78.60
31131;DHT22;20292;50.944;4.034;2022-07-04T13:23:36;28.10;78.10
31131;DHT22;20292;50.944;4.034;2022-07-04T13:26:02;28.10;76.00
31131;DHT22;20292;50.944;4.034;2022-07-04T13:28:28;28.40;75.50
31131;DHT22;20292;50.944;4.034;2022-07-04T13:30:54;28.60;74.30
31131;DHT22;20292;50.944;4.034;2022-07-04T13:33:19;28.80;73.90
31131;DHT22;20292;50.944;4.034;2022-07-04T13:35:45;29.00;72.90
31131;DHT22;20292;50.944;4.034;2022-07-04T13:38:11;28.80;73.10
31131;DHT22;20292;50.944;4.034;2022-07-04T13:40:36;28.80;73.30
31131;DHT22;20292;50.944;4.034;2022-07-04T13:43:02;28.80;72.50
31131;DHT22;20292;50.944;4.034;2022-07-04T13:45:35;28.60;71.50
31131;DHT22;20292;50.944;4.034;2022-07-04T13:48:01;28.10;73.20
31131;DHT22;20292;50.944;4.034;2022-07-04T13:50:26;27.90;75.90
31131;DHT22;20292;50.944;4.034;2022-07-04T13:52:52;27.90;77.40
31131;DHT22;20292;50.944;4.034;2022-07-04T13:55:18;27.90;77.50
31131;DHT22;20292;50.944;4.034;2022-07-04T13:57:43;28.00;76.20
31131;DHT22;20292;50.944;4.034;2022-07-04T14:00:09;27.90;77.90
31131;DHT22;20292;50.944;4.034;2022-07-04T14:02:35;28.00;76.80
31131;DHT22;20292;50.944;4.034;2022-07-04T14:05:01;27.90;77.30
31131;DHT22;20292;50.944;4.034;2022-07-04T14:07:27;27.90;79.00
31131;DHT22;20292;50.944;4.034;2022-07-04T14:09:53;28.00;77.90
31131;DHT22;20292;50.944;4.034;2022-07-04T14:12:19;28.20;78.20
31131;DHT22;20292;50.944;4.034;2022-07-04T14:14:45;28.30;77.80
31131;DHT22;20292;50.944;4.034;2022-07-04T14:17:11;28.30;77.70
31131;DHT22;20292;50.944;4.034;2022-07-04T14:19:37;28.40;77.80
31131;DHT22;20292;50.944;4.034;2022-07-04T14:22:03;28.40;75.50
31131;DHT22;20292;50.944;4.034;2022-07-04T14:24:29;28.50;76.30
31131;DHT22;20292;50.944;4.034;2022-07-04T14:26:54;28.60;75.20
31131;DHT22;20292;50.944;4.034;2022-07-04T14:29:20;28.50;75.50
31131;DHT22;20292;50.944;4.034;2022-07-04T14:31:46;28.50;76.30
31131;DHT22;20292;50.944;4.034;2022-07-04T14:34:12;28.60;76.70
31131;DHT22;20292;50.944;4.034;2022-07-04T14:36:39;28.80;75.50
31131;DHT22;20292;50.944;4.034;2022-07-04T14:39:05;29.10;75.70
31131;DHT22;20292;50.944;4.034;2022-07-04T14:41:31;29.20;79.90
31131;DHT22;20292;50.944;4.034;2022-07-04T14:43:57;28.90;77.40
31131;DHT22;20292;50.944;4.034;2022-07-04T14:46:22;28.60;80.90
31131;DHT22;20292;50.944;4.034;2022-07-04T14:48:48;28.50;82.00
31131;DHT22;20292;50.944;4.034;2022-07-04T14:51:14;28.40;80.40
31131;DHT22;20292;50.944;4.034;2022-07-04T14:53:41;28.10;83.10
31131;DHT22;20292;50.944;4.034;2022-07-04T14:56:07;27.70;83.70
31131;DHT22;20292;50.944;4.034;2022-07-04T14:58:33;27.60;83.50
31131;DHT22;20292;50.944;4.034;2022-07-04T15:00:58;27.90;82.20
31131;DHT22;20292;50.944;4.034;2022-07-04T15:03:24;28.00;81.40
31131;DHT22;20292;50.944;4.034;2022-07-04T15:05:50;28.10;77.70
31131;DHT22;20292;50.944;4.034;2022-07-04T15:08:15;28.20;77.00
31131;DHT22;20292;50.944;4.034;2022-07-04T15:10:41;28.40;77.30
31131;DHT22;20292;50.944;4.034;2022-07-04T15:13:07;28.50;75.40
31131;DHT22;20292;50.944;4.034;2022-07-04T15:15:33;28.70;74.90
31131;DHT22;20292;50.944;4.034;2022-07-04T15:17:59;28.70;74.60
31131;DHT22;20292;50.944;4.034;2022-07-04T15:20:25;28.90;74.50
31131;DHT22;20292;50.944;4.034;2022-07-04T15:23:10;28.90;75.30
31131;DHT22;20292;50.944;4.034;2022-07-04T15:25:54;28.80;75.90
31131;DHT22;20292;50.944;4.034;2022-07-04T15:28:19;28.50;75.40
31131;DHT22;20292;50.944;4.034;2022-07-04T15:30:45;28.50;76.80
31131;DHT22;20292;50.944;4.034;2022-07-04T15:33:10;28.50;75.70
31131;DHT22;20292;50.944;4.034;2022-07-04T15:35:41;28.60;76.10
31131;DHT22;20292;50.944;4.034;2022-07-04T15:38:07;28.80;75.90
31131;DHT22;20292;50.944;4.034;2022-07-04T15:40:33;28.70;74.80
31131;DHT22;20292;50.944;4.034;2022-07-04T15:42:59;28.70;74.30
31131;DHT22;20292;50.944;4.034;2022-07-04T15:45:24;28.70;74.30
31131;DHT22;20292;50.944;4.034;2022-07-04T15:47:50;28.70;74.30
31131;DHT22;20292;50.944;4.034;2022-07-04T15:50:16;28.70;75.70
31131;DHT22;20292;50.944;4.034;2022-07-04T15:52:41;28.60;75.20
31131;DHT22;20292;50.944;4.034;2022-07-04T15:55:07;28.40;75.40
31131;DHT22;20292;50.944;4.034;2022-07-04T15:57:33;28.50;76.70
31131;DHT22;20292;50.944;4.034;2022-07-04T15:59:59;28.50;76.40
31131;DHT22;20292;50.944;4.034;2022-07-04T16:02:24;28.40;76.40
31131;DHT22;20292;50.944;4.034;2022-07-04T16:04:50;28.20;76.60